Time;durP1;ratioP1;P1;durP2;ratioP2;P2;SDS_P1;SDS_P2;PMS_P1;PMS_P2;Temp;Humidity;BMP_temperature;BMP_pressure;BME280_temperature;BME280_humidity;BME280_pressure;Samples;Min_cycle;Max_cycle;Signal;HPM_P1;HPM_P2
2021/06/07 00:02:06;;;;;;;36.07;19.90;;;15.50;99.90;;;;;;5054662;28;20470;-83
2021/06/07 00:04:32;;;;;;;35.80;21.33;;;15.40;99.90;;;;;;5054599;28;20446;-83
2021/06/07 00:07:00;;;;;;;34.03;21.03;;;15.50;99.90;;;;;;5054406;28;20434;-84
2021/06/07 00:09:28;;;;;;;33.73;19.67;;;15.50;99.90;;;;;;5054354;28;20535;-83
2021/06/07 00:11:57;;;;;;;37.77;21.20;;;15.50;99.90;;;;;;5054373;28;20521;-84
2021/06/07 00:14:29;;;;;;;38.90;20.67;;;15.50;99.90;;;;;;5054370;28;20511;-84
2021/06/07 00:16:57;;;;;;;34.43;19.53;;;15.40;99.90;;;;;;5054240;28;20469;-83
2021/06/07 00:19:25;;;;;;;35.53;20.40;;;15.40;99.90;;;;;;5053433;28;20434;-84
2021/06/07 00:21:52;;;;;;;42.37;22.00;;;15.40;99.90;;;;;;5053862;28;21034;-84
2021/06/07 00:24:20;;;;;;;39.43;21.77;;;15.40;99.90;;;;;;5056298;28;20457;-82
2021/06/07 00:26:48;;;;;;;38.00;20.43;;;15.30;99.90;;;;;;5053589;28;20437;-82
2021/06/07 00:29:15;;;;;;;40.33;21.30;;;15.30;99.90;;;;;;5053338;28;20476;-81
2021/06/07 00:31:42;;;;;;;36.83;21.50;;;15.30;99.90;;;;;;5053271;28;20457;-82
2021/06/07 00:34:09;;;;;;;35.53;20.00;;;15.30;99.90;;;;;;5053240;28;20983;-82
2021/06/07 00:36:36;;;;;;;43.63;22.80;;;15.30;99.90;;;;;;5053522;28;20442;-82
2021/06/07 00:39:04;;;;;;;38.87;19.70;;;15.30;99.90;;;;;;5053090;28;20572;-82
2021/06/07 00:41:30;;;;;;;40.30;20.87;;;15.20;99.90;;;;;;5053170;28;20480;-82
2021/06/07 00:44:00;;;;;;;41.50;22.40;;;15.20;99.90;;;;;;5053326;28;20453;-82
2021/06/07 00:46:27;;;;;;;40.17;21.73;;;15.20;99.90;;;;;;5053254;28;20446;-82
2021/06/07 00:48:55;;;;;;;40.30;20.93;;;15.20;99.90;;;;;;5053137;28;20469;-82
2021/06/07 00:51:21;;;;;;;37.00;21.27;;;15.20;99.90;;;;;;5052974;28;20500;-81
2021/06/07 00:53:48;;;;;;;40.13;20.57;;;15.20;99.90;;;;;;5053298;28;20477;-82
2021/06/07 00:56:15;;;;;;;43.67;21.47;;;15.30;99.90;;;;;;5053430;28;20846;-82
2021/06/07 00:58:47;;;;;;;35.23;21.20;;;15.20;99.90;;;;;;5053669;28;20802;-81
2021/06/07 01:01:16;;;;;;;39.73;21.50;;;15.20;99.90;;;;;;5052954;28;20501;-81
2021/06/07 01:03:44;;;;;;;41.30;21.87;;;15.20;99.90;;;;;;5052968;28;20941;-81
2021/06/07 01:06:11;;;;;;;39.00;21.80;;;15.20;99.90;;;;;;5052985;28;20835;-81
2021/06/07 01:08:37;;;;;;;38.40;19.00;;;15.20;99.90;;;;;;5053209;28;20457;-82
2021/06/07 01:11:05;;;;;;;43.80;21.20;;;15.20;99.90;;;;;;5052969;28;20485;-82
2021/06/07 01:13:31;;;;;;;42.13;22.57;;;15.20;99.90;;;;;;5053117;28;20476;-80
2021/06/07 01:15:58;;;;;;;40.87;21.00;;;15.20;99.90;;;;;;5053117;28;20449;-81
2021/06/07 01:18:30;;;;;;;43.13;21.20;;;15.20;99.90;;;;;;5053049;28;20838;-81
2021/06/07 01:20:59;;;;;;;40.50;20.43;;;15.20;99.90;;;;;;5052691;28;20969;-80
2021/06/07 01:23:27;;;;;;;39.67;19.60;;;15.20;99.90;;;;;;5052902;28;20462;-80
2021/06/07 01:25:55;;;;;;;42.20;20.17;;;15.20;99.90;;;;;;5052986;28;20446;-81
2021/06/07 01:28:21;;;;;;;50.77;22.77;;;15.20;99.90;;;;;;5053005;28;20503;-81
2021/06/07 01:30:50;;;;;;;39.47;21.40;;;15.20;99.90;;;;;;5054958;28;20485;-81
2021/06/07 01:33:18;;;;;;;44.73;20.80;;;15.20;99.90;;;;;;5056806;28;20544;-80
2021/06/07 01:35:45;;;;;;;35.00;19.40;;;15.20;99.90;;;;;;5056833;28;20460;-81
2021/06/07 01:38:12;;;;;;;45.60;21.00;;;15.20;99.90;;;;;;5056208;28;20981;-80
2021/06/07 01:40:42;;;;;;;37.60;20.10;;;15.20;99.90;;;;;;5056588;28;20449;-80
2021/06/07 01:43:09;;;;;;;40.17;20.20;;;15.20;99.90;;;;;;5056923;28;20441;-81
2021/06/07 01:45:37;;;;;;;37.40;20.60;;;15.20;99.90;;;;;;5056637;28;20449;-81
2021/06/07 01:48:06;;;;;;;42.80;21.00;;;15.10;99.90;;;;;;5056549;28;20499;-81
2021/06/07 01:50:33;;;;;;;40.50;20.00;;;15.20;99.90;;;;;;5056394;28;20487;-81
2021/06/07 01:53:00;;;;;;;40.13;21.43;;;15.10;99.90;;;;;;5056561;28;20461;-81
2021/06/07 01:55:30;;;;;;;39.40;20.87;;;15.20;99.90;;;;;;5056115;28;20448;-81
2021/06/07 01:57:58;;;;;;;37.03;19.97;;;15.10;99.90;;;;;;5056491;28;20437;-81
2021/06/07 02:00:27;;;;;;;35.30;19.57;;;15.20;99.90;;;;;;5056374;28;20449;-81
2021/06/07 02:02:54;;;;;;;40.03;20.93;;;15.20;99.90;;;;;;5056011;28;20956;-81
2021/06/07 02:05:22;;;;;;;38.20;19.93;;;15.10;99.90;;;;;;5056009;28;20964;-80
2021/06/07 02:07:49;;;;;;;42.00;21.50;;;15.10;99.90;;;;;;5056249;28;20433;-81
2021/06/07 02:10:16;;;;;;;44.37;21.70;;;15.10;99.90;;;;;;5055786;28;20485;-80
2021/06/07 02:12:43;;;;;;;44.70;19.90;;;15.10;99.90;;;;;;5055774;28;20453;-81
2021/06/07 02:15:12;;;;;;;37.83;20.30;;;15.10;99.90;;;;;;5056070;28;20449;-81
2021/06/07 02:17:39;;;;;;;36.40;19.30;;;15.10;99.90;;;;;;5055805;28;20426;-81
2021/06/07 02:20:09;;;;;;;43.07;22.00;;;15.10;99.90;;;;;;5055997;28;20837;-81
2021/06/07 02:22:36;;;;;;;36.17;19.87;;;15.10;99.90;;;;;;5055635;28;20830;-81
2021/06/07 02:25:04;;;;;;;35.43;19.07;;;15.10;99.90;;;;;;5055914;28;20454;-81
2021/06/07 02:27:31;;;;;;;40.03;20.33;;;15.20;99.90;;;;;;5055524;28;20822;-81
2021/06/07 02:29:57;;;;;;;37.70;19.60;;;15.20;99.90;;;;;;5056260;28;20835;-81
2021/06/07 02:32:25;;;;;;;40.00;19.40;;;15.20;99.90;;;;;;5056350;28;20478;-92
2021/06/07 02:34:51;;;;;;;41.47;20.20;;;15.20;99.90;;;;;;5056548;28;20937;-92
2021/06/07 02:37:18;;;;;;;36.40;19.77;;;15.20;99.90;;;;;;5056643;28;20981;-91
2021/06/07 02:39:44;;;;;;;42.40;21.50;;;15.20;99.90;;;;;;5056694;28;20430;-92
2021/06/07 02:42:12;;;;;;;46.33;22.43;;;15.20;99.90;;;;;;5055695;28;20470;-92
2021/06/07 02:44:38;;;;;;;40.67;20.67;;;15.20;99.90;;;;;;5056663;28;20447;-92
2021/06/07 02:47:05;;;;;;;41.43;19.97;;;15.10;99.90;;;;;;5056660;28;20457;-92
2021/06/07 02:49:33;;;;;;;43.23;20.53;;;15.20;99.90;;;;;;5059025;28;20482;-91
2021/06/07 02:51:59;;;;;;;44.27;21.57;;;15.10;99.90;;;;;;5060725;28;20458;-92
2021/06/07 02:54:25;;;;;;;41.57;21.13;;;15.10;99.90;;;;;;5056636;28;20770;-92
2021/06/07 02:56:51;;;;;;;43.87;22.33;;;15.20;99.90;;;;;;5056318;28;20430;-92
2021/06/07 02:59:18;;;;;;;42.57;22.07;;;15.10;99.90;;;;;;5056574;28;20442;-92
2021/06/07 03:01:44;;;;;;;45.17;20.90;;;15.10;99.90;;;;;;5056845;28;20473;-92
2021/06/07 03:04:10;;;;;;;42.50;21.57;;;15.10;99.90;;;;;;5056698;28;20480;-92
2021/06/07 03:06:38;;;;;;;43.43;20.83;;;15.10;99.90;;;;;;5056182;28;20448;-92
2021/06/07 03:09:05;;;;;;;42.23;19.77;;;15.10;99.90;;;;;;5056433;28;20446;-92
2021/06/07 03:11:31;;;;;;;44.83;21.67;;;15.10;99.90;;;;;;5056337;28;20494;-92
2021/06/07 03:13:57;;;;;;;48.90;23.40;;;15.10;99.90;;;;;;5064177;28;20442;-88
2021/06/07 03:16:24;;;;;;;38.57;20.30;;;15.00;99.90;;;;;;5056820;28;20445;-92
2021/06/07 03:18:50;;;;;;;40.97;21.63;;;15.00;99.90;;;;;;5056498;28;20441;-92
2021/06/07 03:21:16;;;;;;;45.37;20.90;;;15.00;99.90;;;;;;5056374;28;20458;-92
2021/06/07 03:23:44;;;;;;;46.53;22.10;;;15.00;99.90;;;;;;5060981;28;20454;-91
2021/06/07 03:26:11;;;;;;;43.87;22.03;;;15.00;99.90;;;;;;5057473;28;20468;-91
2021/06/07 03:28:38;;;;;;;43.27;20.60;;;15.00;99.90;;;;;;5055816;28;20450;-92
2021/06/07 03:31:07;;;;;;;38.83;20.20;;;15.00;99.90;;;;;;5055627;28;20485;-92
2021/06/07 03:33:33;;;;;;;43.07;21.13;;;15.00;99.90;;;;;;5055807;28;20472;-92
2021/06/07 03:35:59;;;;;;;49.03;22.33;;;15.00;99.90;;;;;;5055464;28;20437;-92
2021/06/07 03:38:27;;;;;;;47.07;21.07;;;15.00;99.90;;;;;;5055265;28;20839;-92
2021/06/07 03:40:56;;;;;;;38.57;20.60;;;15.00;99.90;;;;;;5055895;28;20481;-92
2021/06/07 03:43:23;;;;;;;42.07;20.23;;;15.00;99.90;;;;;;5059206;28;20438;-91
2021/06/07 03:45:50;;;;;;;44.37;20.40;;;15.00;99.90;;;;;;5055995;28;20433;-92
2021/06/07 03:48:17;;;;;;;47.83;21.80;;;15.00;99.90;;;;;;5055411;28;20438;-92
2021/06/07 03:50:43;;;;;;;44.57;20.00;;;15.00;99.90;;;;;;5055121;28;20480;-92
2021/06/07 03:53:10;;;;;;;41.17;19.23;;;15.00;99.90;;;;;;5054957;28;21052;-92
2021/06/07 03:55:38;;;;;;;41.60;20.07;;;15.00;99.90;;;;;;5054993;28;20465;-92
2021/06/07 03:58:06;;;;;;;41.47;21.73;;;15.00;99.90;;;;;;5054958;28;20619;-92
2021/06/07 04:00:35;;;;;;;49.10;23.23;;;15.10;99.90;;;;;;5055176;28;20453;-92
2021/06/07 04:03:05;;;;;;;48.47;21.80;;;15.10;99.90;;;;;;5055200;28;20457;-92
2021/06/07 04:05:32;;;;;;;51.50;22.47;;;15.00;99.90;;;;;;5055132;28;20466;-92
2021/06/07 04:07:58;;;;;;;46.87;21.77;;;15.00;99.90;;;;;;5054977;28;20450;-92
2021/06/07 04:10:25;;;;;;;42.30;20.63;;;15.00;99.90;;;;;;5054935;28;20484;-92
2021/06/07 04:12:53;;;;;;;46.60;20.00;;;15.00;99.90;;;;;;5055016;28;20466;-91
2021/06/07 04:15:23;;;;;;;41.23;19.87;;;15.00;99.90;;;;;;5055242;28;20532;-92
2021/06/07 04:17:50;;;;;;;43.00;21.70;;;15.00;99.90;;;;;;5054886;28;20450;-92
2021/06/07 04:20:19;;;;;;;41.67;20.80;;;15.00;99.90;;;;;;5054946;28;20446;-92
2021/06/07 04:22:46;;;;;;;40.13;19.90;;;15.00;99.90;;;;;;5054544;28;20454;-92
2021/06/07 04:25:15;;;;;;;44.23;20.73;;;15.00;99.90;;;;;;5054640;28;20456;-89
2021/06/07 04:27:43;;;;;;;44.40;18.20;;;15.00;99.90;;;;;;5054639;28;20883;-88
2021/06/07 04:30:12;;;;;;;36.30;18.50;;;15.00;99.90;;;;;;5054651;28;20488;-88
2021/06/07 04:32:41;;;;;;;38.70;19.50;;;15.00;99.90;;;;;;5054266;28;20458;-88
2021/06/07 04:35:10;;;;;;;39.90;19.50;;;14.90;99.90;;;;;;5054866;28;20541;-88
2021/06/07 04:37:41;;;;;;;39.73;18.87;;;15.00;99.90;;;;;;5054212;28;21022;-88
2021/06/07 04:40:09;;;;;;;37.97;19.73;;;14.90;99.90;;;;;;5055212;28;20788;-88
2021/06/07 04:42:35;;;;;;;35.80;18.00;;;15.00;99.90;;;;;;5054562;28;21028;-87
2021/06/07 04:45:02;;;;;;;31.87;17.50;;;15.00;99.90;;;;;;5054632;28;20448;-90
2021/06/07 04:47:28;;;;;;;34.53;17.60;;;15.10;99.90;;;;;;5054825;28;20495;-87
2021/06/07 04:49:56;;;;;;;30.13;16.30;;;15.10;99.90;;;;;;5054328;28;21000;-88
2021/06/07 04:52:23;;;;;;;35.40;16.23;;;15.00;99.90;;;;;;5054814;28;21038;-88
2021/06/07 04:54:49;;;;;;;29.33;16.73;;;15.00;99.90;;;;;;5054716;28;20464;-88
2021/06/07 04:57:15;;;;;;;32.70;16.27;;;15.10;99.90;;;;;;5055022;28;20449;-87
2021/06/07 04:59:41;;;;;;;28.60;15.90;;;15.10;99.90;;;;;;5054726;28;20442;-88
2021/06/07 05:02:08;;;;;;;28.70;14.90;;;15.10;99.90;;;;;;5054825;28;20476;-88
2021/06/07 05:04:34;;;;;;;31.10;16.30;;;15.10;99.90;;;;;;5053292;28;20438;-81
2021/06/07 05:07:02;;;;;;;30.83;14.70;;;15.10;99.90;;;;;;5057113;28;20449;-81
2021/06/07 05:09:28;;;;;;;27.53;15.27;;;15.10;99.90;;;;;;5057273;28;20450;-81
2021/06/07 05:11:55;;;;;;;28.90;14.70;;;15.10;99.90;;;;;;5056930;28;20527;-81
2021/06/07 05:14:21;;;;;;;27.57;14.97;;;15.10;99.90;;;;;;5057287;28;20445;-81
2021/06/07 05:16:47;;;;;;;27.07;13.73;;;15.20;99.90;;;;;;5057055;28;20434;-81
2021/06/07 05:19:14;;;;;;;23.70;13.80;;;15.20;99.90;;;;;;5057183;28;20445;-80
2021/06/07 05:21:40;;;;;;;25.57;14.23;;;15.20;99.90;;;;;;5057064;28;20515;-80
2021/06/07 05:24:08;;;;;;;28.63;13.53;;;15.20;99.90;;;;;;5056770;28;20457;-81
2021/06/07 05:26:34;;;;;;;24.73;13.40;;;15.20;99.90;;;;;;5056785;28;20453;-80
2021/06/07 05:29:00;;;;;;;24.17;14.13;;;15.20;99.90;;;;;;5057138;28;20441;-80
2021/06/07 05:31:27;;;;;;;25.37;14.23;;;15.20;99.90;;;;;;5056781;28;20535;-80
2021/06/07 05:33:53;;;;;;;22.40;12.90;;;15.30;99.90;;;;;;5056943;28;20519;-80
2021/06/07 05:36:19;;;;;;;26.00;13.67;;;15.20;99.90;;;;;;5056835;28;20457;-81
2021/06/07 05:38:45;;;;;;;20.77;12.17;;;15.20;99.90;;;;;;5056350;28;20481;-81
2021/06/07 05:41:13;;;;;;;23.27;12.20;;;15.20;99.90;;;;;;5056334;28;20837;-80
2021/06/07 05:43:39;;;;;;;21.40;12.67;;;15.20;99.90;;;;;;5056686;28;20446;-81
2021/06/07 05:46:06;;;;;;;16.63;10.77;;;15.30;99.90;;;;;;5056651;28;20449;-81
2021/06/07 05:48:32;;;;;;;22.90;11.17;;;15.30;99.90;;;;;;5056360;28;20461;-81
2021/06/07 05:50:58;;;;;;;23.73;13.30;;;15.30;99.90;;;;;;5056461;28;20496;-81
2021/06/07 05:53:24;;;;;;;24.03;12.03;;;15.30;99.90;;;;;;5056192;28;20941;-80
2021/06/07 05:55:51;;;;;;;21.20;12.60;;;15.30;99.90;;;;;;5056454;28;20445;-80
2021/06/07 05:58:20;;;;;;;19.80;12.40;;;15.30;99.90;;;;;;5056433;28;20445;-81
2021/06/07 06:00:48;;;;;;;18.53;10.40;;;15.40;99.90;;;;;;5055993;28;20854;-81
2021/06/07 06:03:15;;;;;;;18.30;10.60;;;15.40;99.90;;;;;;5056307;28;20483;-81
2021/06/07 06:05:41;;;;;;;18.50;10.87;;;15.40;99.90;;;;;;5056061;28;20430;-81
2021/06/07 06:08:09;;;;;;;22.23;11.10;;;15.30;99.90;;;;;;5055947;28;20434;-81
2021/06/07 06:10:36;;;;;;;19.60;10.17;;;15.40;99.90;;;;;;5056114;28;20481;-81
2021/06/07 06:13:04;;;;;;;17.77;10.50;;;15.40;99.90;;;;;;5055831;28;20940;-81
2021/06/07 06:15:32;;;;;;;19.30;10.60;;;15.40;99.90;;;;;;5055975;28;20488;-81
2021/06/07 06:17:58;;;;;;;15.10;9.03;;;15.40;99.90;;;;;;5054451;28;20434;-81
2021/06/07 06:20:28;;;;;;;17.73;10.60;;;15.40;99.90;;;;;;5055956;28;20442;-81
2021/06/07 06:22:55;;;;;;;17.10;9.87;;;15.40;99.90;;;;;;5055966;28;20469;-81
2021/06/07 06:25:21;;;;;;;17.47;10.20;;;15.50;99.90;;;;;;5055895;28;20450;-81
2021/06/07 06:27:47;;;;;;;14.90;9.33;;;15.40;99.90;;;;;;5055870;28;20777;-81
2021/06/07 06:30:17;;;;;;;15.63;10.10;;;15.40;99.90;;;;;;5055785;28;21034;-82
2021/06/07 06:32:47;;;;;;;14.00;9.33;;;15.40;99.90;;;;;;5055711;28;20498;-82
2021/06/07 06:35:13;;;;;;;14.87;10.13;;;15.40;99.90;;;;;;5055738;28;20846;-81
2021/06/07 06:37:43;;;;;;;19.87;10.33;;;15.40;99.90;;;;;;5055427;28;20485;-81
2021/06/07 06:40:11;;;;;;;18.67;10.77;;;15.50;99.90;;;;;;5055666;28;20445;-81
2021/06/07 06:42:39;;;;;;;15.83;9.77;;;15.40;99.90;;;;;;5055539;28;20495;-82
2021/06/07 06:45:08;;;;;;;15.70;9.03;;;15.50;99.90;;;;;;5055500;28;20448;-82
2021/06/07 06:47:35;;;;;;;18.10;10.10;;;15.50;99.90;;;;;;5055511;28;20446;-81
2021/06/07 06:50:04;;;;;;;17.53;9.63;;;15.50;99.90;;;;;;5055488;28;20488;-81
2021/06/07 06:52:31;;;;;;;16.63;10.50;;;15.50;99.90;;;;;;5055346;28;20957;-81
2021/06/07 06:54:57;;;;;;;16.10;11.23;;;15.50;99.90;;;;;;5055112;28;20544;-81
2021/06/07 06:57:23;;;;;;;19.70;10.93;;;15.60;99.90;;;;;;5055102;28;20438;-81
2021/06/07 06:59:49;;;;;;;19.80;10.37;;;15.50;99.90;;;;;;5055331;28;20476;-81
2021/06/07 07:02:16;;;;;;;15.83;9.83;;;15.50;99.90;;;;;;5054911;28;20464;-81
2021/06/07 07:04:42;;;;;;;22.87;10.27;;;15.50;99.90;;;;;;5055266;28;20426;-81
2021/06/07 07:07:10;;;;;;;19.10;11.00;;;15.50;99.90;;;;;;5055229;28;20433;-81
2021/06/07 07:09:36;;;;;;;17.30;9.73;;;15.60;99.90;;;;;;5055289;28;20800;-81
2021/06/07 07:12:03;;;;;;;15.47;10.40;;;15.60;99.90;;;;;;5055697;28;20482;-88
2021/06/07 07:14:30;;;;;;;16.10;10.40;;;15.50;99.90;;;;;;5056327;28;20537;-88
2021/06/07 07:16:56;;;;;;;17.00;10.43;;;15.60;99.90;;;;;;5056504;28;20454;-88
2021/06/07 07:19:23;;;;;;;26.10;10.37;;;15.60;99.90;;;;;;5056592;28;20445;-88
2021/06/07 07:21:50;;;;;;;20.07;10.47;;;15.50;99.90;;;;;;5056355;28;20461;-87
2021/06/07 07:24:18;;;;;;;18.37;11.07;;;15.50;99.90;;;;;;5056009;28;20430;-86
2021/06/07 07:26:45;;;;;;;15.50;10.27;;;15.50;99.90;;;;;;5056266;28;20434;-89
2021/06/07 07:29:11;;;;;;;19.40;10.83;;;15.60;99.90;;;;;;5055702;28;20438;-87
2021/06/07 07:31:37;;;;;;;20.40;10.60;;;15.60;99.90;;;;;;5055768;28;20492;-89
2021/06/07 07:34:05;;;;;;;18.30;10.73;;;15.60;99.90;;;;;;5055809;28;20974;-89
2021/06/07 07:36:31;;;;;;;19.20;11.50;;;15.60;99.90;;;;;;5056278;28;20422;-88
2021/06/07 07:38:57;;;;;;;17.50;10.37;;;15.60;99.90;;;;;;5055598;28;20521;-88
2021/06/07 07:41:27;;;;;;;14.60;10.43;;;15.70;99.90;;;;;;5055867;28;20981;-88
2021/06/07 07:43:53;;;;;;;17.53;10.83;;;15.70;99.90;;;;;;5063641;28;20464;-87
2021/06/07 07:46:20;;;;;;;18.97;9.93;;;15.70;99.90;;;;;;5055914;28;20454;-88
2021/06/07 07:48:46;;;;;;;19.60;10.93;;;15.70;99.90;;;;;;5055685;28;20543;-88
2021/06/07 07:51:12;;;;;;;15.93;9.53;;;15.70;99.90;;;;;;5055239;28;20485;-88
2021/06/07 07:53:39;;;;;;;17.33;10.17;;;15.70;99.90;;;;;;5055792;28;20411;-88
2021/06/07 07:56:07;;;;;;;15.50;9.30;;;15.80;99.90;;;;;;5055597;28;20453;-87
2021/06/07 07:58:34;;;;;;;15.63;9.50;;;15.80;99.90;;;;;;5055763;28;20541;-88
2021/06/07 08:01:01;;;;;;;15.60;9.50;;;15.90;99.90;;;;;;5055502;28;20473;-88
2021/06/07 08:03:27;;;;;;;15.30;9.73;;;15.90;99.90;;;;;;5055320;28;20446;-87
2021/06/07 08:05:53;;;;;;;16.87;9.60;;;15.90;99.90;;;;;;5055053;28;20441;-90
2021/06/07 08:08:19;;;;;;;16.13;9.97;;;16.00;99.90;;;;;;5055338;28;20461;-84
2021/06/07 08:10:46;;;;;;;13.70;8.77;;;16.10;99.90;;;;;;5054678;28;20481;-84
2021/06/07 08:13:12;;;;;;;14.00;8.97;;;16.20;99.90;;;;;;5054503;28;20450;-84
2021/06/07 08:15:40;;;;;;;14.50;8.30;;;16.20;99.90;;;;;;5059908;28;20454;-84
2021/06/07 08:18:06;;;;;;;12.30;8.60;;;16.20;99.90;;;;;;5055513;28;20409;-84
2021/06/07 08:20:33;;;;;;;14.80;8.77;;;16.20;99.90;;;;;;5054562;28;20488;-84
2021/06/07 08:22:59;;;;;;;14.93;8.40;;;16.10;99.90;;;;;;5054510;28;20448;-91
2021/06/07 08:25:26;;;;;;;12.77;9.40;;;16.10;99.90;;;;;;5054792;28;20445;-91
2021/06/07 08:27:52;;;;;;;13.87;8.30;;;16.20;99.90;;;;;;5054622;28;20489;-91
2021/06/07 08:30:20;;;;;;;12.13;8.63;;;16.20;99.90;;;;;;5054884;28;20466;-91
2021/06/07 08:32:48;;;;;;;10.27;7.23;;;16.20;99.90;;;;;;5054830;28;20458;-91
2021/06/07 08:35:15;;;;;;;11.27;7.33;;;16.30;99.90;;;;;;5054772;28;20478;-91
2021/06/07 08:37:41;;;;;;;12.20;7.67;;;16.20;99.90;;;;;;5058658;28;20474;-91
2021/06/07 08:40:11;;;;;;;9.13;6.83;;;16.20;99.90;;;;;;5056440;28;20806;-92
2021/06/07 08:42:40;;;;;;;8.70;6.53;;;16.20;99.90;;;;;;5054246;28;20476;-92
2021/06/07 08:45:09;;;;;;;8.33;6.27;;;16.20;99.90;;;;;;5054405;28;20426;-92
2021/06/07 08:47:35;;;;;;;10.40;6.20;;;16.20;99.90;;;;;;5054683;28;20434;-92
2021/06/07 08:50:05;;;;;;;11.47;6.83;;;16.20;99.90;;;;;;5054579;28;20461;-92
2021/06/07 08:52:32;;;;;;;10.03;6.00;;;16.20;99.90;;;;;;5055406;28;20466;-89
2021/06/07 08:54:58;;;;;;;10.53;6.53;;;16.20;99.90;;;;;;5059148;28;20434;-88
2021/06/07 08:57:25;;;;;;;7.40;6.33;;;16.20;99.90;;;;;;5055263;28;20460;-88
2021/06/07 08:59:52;;;;;;;10.23;6.63;;;16.10;99.90;;;;;;5055339;28;20434;-89
2021/06/07 09:02:30;;;;;;;9.50;6.67;;;16.10;99.90;;;;;;5054440;28;20799;-88
2021/06/07 09:04:57;;;;;;;9.77;7.23;;;16.10;99.90;;;;;;5054649;28;20436;-89
2021/06/07 09:07:25;;;;;;;8.03;6.10;;;16.20;99.90;;;;;;5054279;28;20438;-89
2021/06/07 09:10:06;;;;;;;9.20;6.50;;;16.10;99.90;;;;;;5055156;28;20801;-89
2021/06/07 09:12:33;;;;;;;9.60;6.97;;;16.10;99.90;;;;;;5054447;28;20462;-84
2021/06/07 09:14:59;;;;;;;8.53;6.20;;;16.10;99.90;;;;;;5054625;28;20456;-88
2021/06/07 09:17:26;;;;;;;10.40;6.63;;;16.20;99.90;;;;;;5055073;28;20434;-90
2021/06/07 09:20:08;;;;;;;7.10;5.57;;;16.20;99.90;;;;;;5055486;28;20465;-90
2021/06/07 09:22:36;;;;;;;8.80;6.83;;;16.20;99.90;;;;;;5054761;28;20467;-89
2021/06/07 09:25:05;;;;;;;8.70;7.00;;;16.20;99.90;;;;;;5054702;28;20929;-88
2021/06/07 09:27:31;;;;;;;8.20;5.80;;;16.20;99.90;;;;;;5054597;28;20429;-89
2021/06/07 09:29:58;;;;;;;9.63;6.40;;;16.20;99.90;;;;;;5054519;28;20445;-88
2021/06/07 09:32:24;;;;;;;8.83;7.20;;;16.20;99.90;;;;;;5054626;28;20470;-89
2021/06/07 09:35:05;;;;;;;8.47;6.47;;;16.20;99.90;;;;;;5054669;28;20460;-89
2021/06/07 09:37:31;;;;;;;10.20;6.87;;;16.20;99.90;;;;;;5054227;28;20486;-87
2021/06/07 09:40:17;;;;;;;9.67;6.70;;;16.30;99.90;;;;;;5054536;28;20443;-88
2021/06/07 09:42:54;;;;;;;9.40;6.70;;;16.30;99.90;;;;;;5054027;28;20501;-88
2021/06/07 09:45:38;;;;;;;9.23;7.20;;;16.40;99.90;;;;;;5054026;28;20479;-90
2021/06/07 09:48:15;;;;;;;8.63;7.23;;;16.40;99.90;;;;;;5053649;28;20483;-90
2021/06/07 09:50:54;;;;;;;9.77;7.07;;;16.40;99.90;;;;;;5054166;28;20465;-90
2021/06/07 09:53:42;;;;;;;8.20;7.00;;;16.40;99.90;;;;;;5057751;28;20433;-90
2021/06/07 09:56:10;;;;;;;8.53;6.43;;;16.50;99.90;;;;;;5059105;28;20905;-87
2021/06/07 09:58:37;;;;;;;9.50;6.87;;;16.60;99.90;;;;;;5068548;28;20437;-91
2021/06/07 10:01:14;;;;;;;6.17;5.40;;;16.60;99.90;;;;;;5057422;28;20458;-88
2021/06/07 10:03:43;;;;;;;7.83;5.70;;;16.70;99.90;;;;;;5058024;28;20472;-88
2021/06/07 10:06:22;;;;;;;7.03;5.60;;;16.70;99.90;;;;;;5057940;28;20449;-88
2021/06/07 10:08:49;;;;;;;6.60;5.30;;;16.80;99.90;;;;;;5057457;28;20471;-89
2021/06/07 10:11:19;;;;;;;6.27;5.67;;;16.70;99.90;;;;;;5057417;28;20489;-87
2021/06/07 10:13:45;;;;;;;5.57;4.73;;;16.80;99.90;;;;;;5057513;28;20430;-87
2021/06/07 10:16:11;;;;;;;5.80;5.20;;;16.80;99.90;;;;;;5057161;28;20545;-87
2021/06/07 10:18:38;;;;;;;6.07;5.10;;;16.80;99.90;;;;;;5057520;28;20437;-87
2021/06/07 10:21:05;;;;;;;5.37;4.83;;;16.90;99.90;;;;;;5057067;28;20827;-88
2021/06/07 10:23:33;;;;;;;6.70;5.50;;;16.90;99.90;;;;;;5057070;28;20848;-87
2021/06/07 10:26:01;;;;;;;8.37;5.90;;;16.90;99.90;;;;;;5056908;28;20430;-87
2021/06/07 10:28:32;;;;;;;9.40;5.80;;;16.90;99.90;;;;;;5057101;28;20484;-87
2021/06/07 10:31:08;;;;;;;8.73;6.73;;;17.00;99.90;;;;;;5056601;28;20501;-84
2021/06/07 10:33:36;;;;;;;6.23;5.57;;;17.00;99.90;;;;;;5056380;28;20788;-83
2021/06/07 10:36:37;;;;;;;8.33;6.50;;;17.00;99.90;;;;;;5057825;28;20427;-91
2021/06/07 10:39:28;;;;;;;9.13;7.20;;;17.00;99.90;;;;;;5058320;28;20488;-91
2021/06/07 10:42:17;;;;;;;9.33;7.07;;;16.90;99.90;;;;;;5056451;28;20481;-91
2021/06/07 10:44:56;;;;;;;8.20;6.80;;;16.80;99.90;;;;;;5056712;28;20799;-92
2021/06/07 10:47:26;;;;;;;8.53;6.50;;;16.90;99.90;;;;;;5056132;28;20906;-81
2021/06/07 10:49:57;;;;;;;10.70;7.00;;;16.80;99.90;;;;;;5055794;28;20917;-82
2021/06/07 10:52:25;;;;;;;9.97;7.13;;;16.80;99.90;;;;;;5055577;28;20489;-82
2021/06/07 10:55:01;;;;;;;10.30;7.63;;;16.80;99.90;;;;;;5055606;28;20496;-81
2021/06/07 10:57:40;;;;;;;10.80;7.63;;;16.90;99.90;;;;;;5055523;28;20452;-81
2021/06/07 11:00:20;;;;;;;11.10;7.63;;;16.90;99.90;;;;;;5055292;28;20426;-81
2021/06/07 11:02:48;;;;;;;9.83;7.57;;;17.00;99.90;;;;;;5054519;28;20519;-81
2021/06/07 11:05:16;;;;;;;12.60;9.13;;;17.00;99.90;;;;;;5055249;28;20445;-82
2021/06/07 11:07:45;;;;;;;12.30;8.80;;;17.10;99.90;;;;;;5055057;28;20418;-82
2021/06/07 11:10:30;;;;;;;11.03;8.13;;;17.10;99.90;;;;;;5055228;28;20430;-82
2021/06/07 11:12:59;;;;;;;10.77;8.00;;;17.20;99.90;;;;;;5054729;28;20918;-82
2021/06/07 11:15:28;;;;;;;12.70;8.77;;;17.20;99.90;;;;;;5054865;28;20995;-82
2021/06/07 11:18:28;;;;;;;10.33;8.03;;;17.30;99.90;;;;;;5055091;28;20396;-82
2021/06/07 11:20:58;;;;;;;12.43;9.30;;;17.30;99.90;;;;;;5054902;28;20450;-82
2021/06/07 11:23:36;;;;;;;10.00;7.03;;;17.40;99.90;;;;;;5055004;28;20442;-82
2021/06/07 11:26:04;;;;;;;9.20;6.73;;;17.40;99.90;;;;;;5054733;28;20475;-82
2021/06/07 11:28:46;;;;;;;9.47;7.83;;;17.40;99.90;;;;;;5054915;28;20437;-82
2021/06/07 11:31:42;;;;;;;10.53;7.80;;;17.40;99.90;;;;;;5054494;28;20484;-82
2021/06/07 11:34:10;;;;;;;10.27;7.80;;;17.30;99.90;;;;;;5054733;28;20785;-82
2021/06/07 11:36:56;;;;;;;12.27;8.20;;;17.30;99.90;;;;;;5054294;28;21016;-82
2021/06/07 11:39:24;;;;;;;11.27;8.33;;;17.20;99.90;;;;;;5054523;28;20434;-82
2021/06/07 11:41:53;;;;;;;11.47;8.20;;;17.20;99.90;;;;;;5054115;28;20533;-81
2021/06/07 11:44:40;;;;;;;13.10;9.03;;;17.20;99.90;;;;;;5054549;28;20430;-82
2021/06/07 11:47:09;;;;;;;10.90;8.57;;;17.20;99.90;;;;;;5054017;28;20933;-82
2021/06/07 11:49:36;;;;;;;9.70;8.33;;;17.20;99.90;;;;;;5054127;28;20965;-82
2021/06/07 11:52:08;;;;;;;10.67;8.70;;;17.20;99.90;;;;;;5054176;28;20486;-81
2021/06/07 11:54:52;;;;;;;10.53;8.50;;;17.20;99.90;;;;;;5054313;28;20512;-81
2021/06/07 11:57:23;;;;;;;10.53;8.30;;;17.20;99.90;;;;;;5054442;28;20433;-81
2021/06/07 11:59:57;;;;;;;11.80;7.90;;;17.20;99.90;;;;;;5054259;28;20882;-81
2021/06/07 12:02:27;;;;;;;10.80;8.50;;;17.20;99.90;;;;;;5053887;28;20461;-81
2021/06/07 12:04:54;;;;;;;8.97;8.00;;;17.20;99.90;;;;;;5054003;28;20511;-81
2021/06/07 12:07:22;;;;;;;11.60;8.67;;;17.20;99.90;;;;;;5054173;28;20883;-81
2021/06/07 12:09:50;;;;;;;9.40;8.23;;;17.30;99.90;;;;;;5054049;28;20454;-81
2021/06/07 12:12:17;;;;;;;11.67;9.10;;;17.30;99.90;;;;;;5053725;28;20489;-80
2021/06/07 12:14:46;;;;;;;14.40;8.53;;;17.30;99.90;;;;;;5053597;28;20414;-81
2021/06/07 12:17:17;;;;;;;10.67;8.90;;;17.30;99.90;;;;;;5053619;28;20906;-82
2021/06/07 12:19:47;;;;;;;12.47;9.50;;;17.30;99.90;;;;;;5053882;28;20440;-82
2021/06/07 12:22:41;;;;;;;15.20;9.10;;;17.40;99.90;;;;;;5053874;28;20528;-81
2021/06/07 12:25:26;;;;;;;10.27;8.70;;;17.20;99.90;;;;;;5018537;28;20981;-81
2021/06/07 12:30:40;;;;;;;13.57;9.30;;;17.20;99.90;;;;;;5053542;28;20465;-82
2021/06/07 12:33:07;;;;;;;11.90;9.13;;;17.20;99.90;;;;;;5053722;28;20415;-81
2021/06/07 12:35:36;;;;;;;9.53;8.53;;;17.20;99.90;;;;;;5053510;28;20820;-81
2021/06/07 12:38:04;;;;;;;15.53;9.47;;;17.30;99.90;;;;;;5053533;28;20485;-82
2021/06/07 12:40:34;;;;;;;13.10;8.90;;;17.30;99.90;;;;;;5053400;28;20488;-82
2021/06/07 12:43:12;;;;;;;11.77;8.33;;;17.40;99.90;;;;;;5053592;28;20429;-81
2021/06/07 12:45:41;;;;;;;10.87;8.10;;;17.40;99.90;;;;;;5054306;28;20473;-82